Time;durP1;ratioP1;P1;durP2;ratioP2;P2;SDS_P1;SDS_P2;PMS_P1;PMS_P2;Temp;Humidity;BMP_temperature;BMP_pressure;BME280_temperature;BME280_humidity;BME280_pressure;Samples;Min_cycle;Max_cycle;Signal;HPM_P1;HPM_P2
2022/08/09 00:01:38;;;;;;;13.35;8.93;;;14.30;99.90;;;;;;7398749;19;20018;-83
2022/08/09 00:04:04;;;;;;;12.98;7.28;;;14.20;99.90;;;;;;7398605;19;20006;-83
2022/08/09 00:06:30;;;;;;;12.13;7.90;;;14.20;99.90;;;;;;7396530;19;20369;-83
2022/08/09 00:08:56;;;;;;;13.27;8.93;;;14.20;99.90;;;;;;7397381;19;20010;-82
2022/08/09 00:11:25;;;;;;;13.13;8.18;;;14.10;99.90;;;;;;7398419;19;20015;-84
2022/08/09 00:13:51;;;;;;;14.02;8.82;;;14.10;99.90;;;;;;7396326;19;20014;-83
2022/08/09 00:16:17;;;;;;;17.63;10.65;;;14.20;99.90;;;;;;7398110;19;20042;-82
2022/08/09 00:18:43;;;;;;;12.40;9.20;;;14.20;99.90;;;;;;7396499;19;20010;-83
2022/08/09 00:21:09;;;;;;;13.20;7.80;;;14.20;99.90;;;;;;7398460;19;20034;-83
2022/08/09 00:23:37;;;;;;;18.55;10.10;;;14.10;99.90;;;;;;7397827;19;20722;-83
2022/08/09 00:26:04;;;;;;;13.82;9.85;;;14.10;99.90;;;;;;7397594;19;20038;-83
2022/08/09 00:28:30;;;;;;;14.80;10.73;;;14.10;99.90;;;;;;7396291;19;20014;-83
2022/08/09 00:30:57;;;;;;;14.13;8.07;;;14.10;99.90;;;;;;7400429;19;20381;-83
2022/08/09 00:33:23;;;;;;;13.15;8.80;;;14.00;99.90;;;;;;7405074;19;20011;-82
2022/08/09 00:35:49;;;;;;;16.92;11.18;;;14.00;99.90;;;;;;7402051;19;20022;-83
2022/08/09 00:38:15;;;;;;;20.13;11.60;;;14.10;99.90;;;;;;7398299;19;20010;-83
2022/08/09 00:40:44;;;;;;;23.73;15.98;;;14.10;99.90;;;;;;7398059;19;20010;-83
2022/08/09 00:43:10;;;;;;;25.70;15.65;;;14.20;99.90;;;;;;7397382;19;20010;-83
2022/08/09 00:45:35;;;;;;;24.48;16.58;;;14.20;99.90;;;;;;7395554;19;20356;-83
2022/08/09 00:48:04;;;;;;;20.27;11.27;;;14.20;99.90;;;;;;7395340;19;20017;-83
2022/08/09 00:50:30;;;;;;;26.17;16.27;;;14.20;99.90;;;;;;7397287;19;20015;-83
2022/08/09 00:52:56;;;;;;;26.27;16.80;;;14.20;99.90;;;;;;7395574;19;20014;-83
2022/08/09 00:55:22;;;;;;;20.67;11.90;;;14.20;99.90;;;;;;7395122;19;20014;-84
2022/08/09 00:57:48;;;;;;;24.50;16.05;;;14.20;99.90;;;;;;7397311;19;20022;-83
2022/08/09 01:00:15;;;;;;;25.73;12.75;;;14.20;99.90;;;;;;7397175;19;20028;-83
2022/08/09 01:02:50;;;;;;;24.15;12.98;;;14.20;99.90;;;;;;7396998;19;20417;-83
2022/08/09 01:05:25;;;;;;;25.20;17.10;;;14.30;99.90;;;;;;7396989;19;20492;-83
2022/08/09 01:08:02;;;;;;;21.08;11.68;;;14.20;99.90;;;;;;7394907;19;20347;-84
2022/08/09 01:11:04;;;;;;;21.92;11.70;;;14.30;99.90;;;;;;7396847;19;20007;-83
2022/08/09 01:13:30;;;;;;;21.98;11.30;;;14.20;99.90;;;;;;7396597;19;20014;-83
2022/08/09 01:15:57;;;;;;;24.98;13.60;;;14.30;99.90;;;;;;7394544;19;20014;-83
2022/08/09 01:18:32;;;;;;;23.35;14.25;;;14.20;99.90;;;;;;7396092;19;20074;-83
2022/08/09 01:21:22;;;;;;;23.25;13.98;;;14.20;99.90;;;;;;7396499;19;20380;-83
2022/08/09 01:24:09;;;;;;;18.45;10.60;;;14.20;99.90;;;;;;7396402;19;20010;-84
2022/08/09 01:27:09;;;;;;;17.13;9.30;;;14.10;99.90;;;;;;7395683;19;20007;-83
2022/08/09 01:29:46;;;;;;;19.45;11.32;;;14.10;99.90;;;;;;7396256;19;20018;-84
2022/08/09 01:32:15;;;;;;;27.40;15.27;;;14.10;99.90;;;;;;7397816;19;20015;-83
2022/08/09 01:34:43;;;;;;;24.10;10.98;;;14.10;99.90;;;;;;7394296;19;20045;-83
2022/08/09 01:37:13;;;;;;;22.30;12.05;;;14.10;99.90;;;;;;7396134;19;20043;-84
2022/08/09 01:39:42;;;;;;;25.48;16.67;;;14.10;99.90;;;;;;7395748;19;20020;-83
2022/08/09 01:42:08;;;;;;;22.05;11.15;;;14.10;99.90;;;;;;7395662;19;20104;-83
2022/08/09 01:44:35;;;;;;;15.35;8.82;;;14.10;99.90;;;;;;7395689;19;20022;-83
2022/08/09 01:47:03;;;;;;;18.45;12.30;;;14.10;99.90;;;;;;7395068;19;20042;-83
2022/08/09 01:49:34;;;;;;;18.20;12.68;;;14.10;99.90;;;;;;7395141;19;20514;-83
2022/08/09 01:52:11;;;;;;;16.45;12.43;;;14.10;99.90;;;;;;7394792;19;20332;-83
2022/08/09 01:54:51;;;;;;;18.08;10.80;;;14.00;99.90;;;;;;7394767;19;20010;-83
2022/08/09 01:57:24;;;;;;;14.63;11.13;;;14.00;99.90;;;;;;7394462;19;20015;-83
2022/08/09 01:59:51;;;;;;;;;;;14.00;99.90;;;;;;7395129;19;20034;-83
2022/08/09 02:02:19;;;;;;;15.75;8.85;;;14.00;99.90;;;;;;7394688;19;19919;-84
2022/08/09 02:04:47;;;;;;;15.15;11.68;;;13.90;99.90;;;;;;7394466;19;20022;-84
2022/08/09 02:07:17;;;;;;;15.13;8.85;;;13.90;99.90;;;;;;7393780;19;20013;-84
2022/08/09 02:10:02;;;;;;;15.85;9.73;;;13.90;99.90;;;;;;7394598;19;20023;-83
2022/08/09 02:12:31;;;;;;;16.17;9.30;;;13.90;99.90;;;;;;7394422;19;20789;-83
2022/08/09 02:14:59;;;;;;;17.92;12.30;;;13.90;99.90;;;;;;7392278;19;20011;-83
2022/08/09 02:17:29;;;;;;;16.08;11.45;;;14.00;99.90;;;;;;7394316;19;20467;-83
2022/08/09 02:19:55;;;;;;;12.57;8.70;;;14.00;99.90;;;;;;7392758;19;20014;-83
2022/08/09 02:22:47;;;;;;;18.95;9.45;;;13.90;99.90;;;;;;7394110;19;20024;-83
2022/08/09 02:25:28;;;;;;;16.15;9.20;;;13.90;99.90;;;;;;7392623;19;20032;-83
2022/08/09 02:28:02;;;;;;;14.82;8.57;;;13.90;99.90;;;;;;7392541;19;20021;-83
2022/08/09 02:30:42;;;;;;;13.23;9.27;;;13.90;99.90;;;;;;7396255;19;20510;-82
2022/08/09 02:33:11;;;;;;;14.02;11.52;;;13.80;99.90;;;;;;7402312;19;20628;-80
2022/08/09 02:35:39;;;;;;;18.10;10.02;;;13.80;99.90;;;;;;7392969;19;20026;-83
2022/08/09 02:38:08;;;;;;;14.93;9.27;;;13.90;99.90;;;;;;7392304;19;20058;-82
2022/08/09 02:40:36;;;;;;;12.73;9.40;;;13.80;99.90;;;;;;7393914;19;20031;-83
2022/08/09 02:43:09;;;;;;;15.55;11.35;;;13.70;99.90;;;;;;7393668;19;20014;-84
2022/08/09 02:45:41;;;;;;;14.77;10.75;;;13.70;99.90;;;;;;7393463;19;20006;-83
2022/08/09 02:48:12;;;;;;;16.70;8.90;;;13.70;99.90;;;;;;7394318;19;20014;-83
2022/08/09 02:50:44;;;;;;;13.93;10.88;;;13.70;99.90;;;;;;7391575;19;20310;-83
2022/08/09 02:53:22;;;;;;;12.80;8.65;;;13.80;99.90;;;;;;7393333;19;20432;-84
2022/08/09 02:55:50;;;;;;;13.73;8.95;;;13.80;99.90;;;;;;7391261;19;20007;-83
2022/08/09 02:58:17;;;;;;;11.15;8.18;;;13.80;99.90;;;;;;7393152;19;20010;-83
2022/08/09 03:00:44;;;;;;;14.90;10.38;;;13.70;99.90;;;;;;7393418;19;20025;-83
2022/08/09 03:03:11;;;;;;;13.38;10.00;;;13.80;99.90;;;;;;7392621;19;20013;-84
2022/08/09 03:05:40;;;;;;;13.60;8.18;;;13.70;99.90;;;;;;7392802;19;20602;-83
2022/08/09 03:08:09;;;;;;;15.05;9.43;;;13.60;99.90;;;;;;7391489;19;20027;-83
2022/08/09 03:10:37;;;;;;;13.35;9.60;;;13.60;99.90;;;;;;7395183;19;20021;-83
2022/08/09 03:13:04;;;;;;;13.25;9.85;;;13.60;99.90;;;;;;7400715;19;20014;-84
2022/08/09 03:15:31;;;;;;;12.43;9.98;;;13.60;99.90;;;;;;7398516;19;20023;-83
2022/08/09 03:17:57;;;;;;;11.77;8.20;;;13.60;99.90;;;;;;7399077;19;20014;-83
2022/08/09 03:20:24;;;;;;;11.98;8.02;;;13.60;99.90;;;;;;7400598;19;20078;-83
2022/08/09 03:22:51;;;;;;;11.60;8.48;;;13.60;99.90;;;;;;7400040;19;20011;-83
2022/08/09 03:25:17;;;;;;;14.38;10.80;;;13.70;99.90;;;;;;7397897;19;20042;-83
2022/08/09 03:27:47;;;;;;;11.80;8.43;;;13.70;99.90;;;;;;7398675;19;20785;-83
2022/08/09 03:30:14;;;;;;;12.35;7.53;;;13.60;99.90;;;;;;7400819;19;20341;-83
2022/08/09 03:32:41;;;;;;;10.55;8.20;;;13.60;99.90;;;;;;7399205;19;20340;-83
2022/08/09 03:35:10;;;;;;;13.38;10.27;;;13.60;99.90;;;;;;7398045;19;20010;-83
2022/08/09 03:37:39;;;;;;;14.68;8.38;;;13.50;99.90;;;;;;7400178;19;20003;-83
2022/08/09 03:40:06;;;;;;;14.40;8.73;;;13.50;99.90;;;;;;7398640;19;20006;-83
2022/08/09 03:42:32;;;;;;;12.02;8.30;;;13.50;99.90;;;;;;7399913;19;20022;-82
2022/08/09 03:44:58;;;;;;;12.10;7.40;;;13.50;99.90;;;;;;7397584;19;20006;-83
2022/08/09 03:47:24;;;;;;;11.57;9.38;;;13.40;99.90;;;;;;7397639;19;20069;-83
2022/08/09 03:49:51;;;;;;;11.48;7.25;;;13.40;99.90;;;;;;7399415;19;20014;-83
2022/08/09 03:52:20;;;;;;;11.45;8.65;;;13.40;99.90;;;;;;7397730;19;20522;-83
2022/08/09 03:54:48;;;;;;;14.07;10.13;;;13.40;99.90;;;;;;7398449;19;20006;-83
2022/08/09 03:57:14;;;;;;;16.15;9.32;;;13.40;99.90;;;;;;7398137;19;20022;-83
2022/08/09 03:59:41;;;;;;;10.93;8.23;;;13.50;99.90;;;;;;7398894;19;20082;-83
2022/08/09 04:02:07;;;;;;;354.88;22.02;;;13.50;99.90;;;;;;7398554;19;20010;-83
2022/08/09 04:04:34;;;;;;;17.50;8.52;;;13.50;99.90;;;;;;7398675;19;20464;-83
2022/08/09 04:07:00;;;;;;;12.77;8.68;;;13.50;99.90;;;;;;7397948;19;20014;-83
2022/08/09 04:09:27;;;;;;;14.35;9.63;;;13.50;99.90;;;;;;7398906;19;20043;-84
2022/08/09 04:12:08;;;;;;;13.95;8.23;;;13.50;99.90;;;;;;7398817;19;20027;-83
2022/08/09 04:14:35;;;;;;;15.85;7.68;;;13.40;99.90;;;;;;7397970;19;20219;-84
2022/08/09 04:17:00;;;;;;;14.02;9.98;;;13.40;99.90;;;;;;7396499;19;20066;-84
2022/08/09 04:19:26;;;;;;;14.38;8.75;;;13.40;99.90;;;;;;7396565;19;20457;-84
2022/08/09 04:21:52;;;;;;;26.27;13.48;;;13.40;99.90;;;;;;7397754;19;20014;-84
2022/08/09 04:24:18;;;;;;;28.45;12.73;;;13.50;99.90;;;;;;7398408;19;20011;-84
2022/08/09 04:26:44;;;;;;;13.88;8.20;;;13.70;99.90;;;;;;7398143;19;20011;-83
2022/08/09 04:29:10;;;;;;;12.30;7.07;;;13.70;99.90;;;;;;7398376;19;20010;-83
2022/08/09 04:31:35;;;;;;;19.95;12.13;;;13.60;99.90;;;;;;7402233;19;20034;-83
2022/08/09 04:34:01;;;;;;;20.17;12.13;;;13.70;99.90;;;;;;7396670;19;20025;-83
2022/08/09 04:36:30;;;;;;;23.63;13.43;;;13.80;99.90;;;;;;7395849;19;20014;-84
2022/08/09 04:38:59;;;;;;;28.30;14.07;;;13.90;99.90;;;;;;7397229;19;20010;-83
2022/08/09 04:41:25;;;;;;;25.10;10.02;;;14.00;99.90;;;;;;7397305;19;20018;-83
2022/08/09 04:43:52;;;;;;;25.73;13.50;;;14.00;99.90;;;;;;7397700;19;20014;-83
2022/08/09 04:46:18;;;;;;;20.60;10.00;;;14.10;99.90;;;;;;7395710;19;20006;-84
2022/08/09 04:48:44;;;;;;;22.35;13.10;;;14.10;99.90;;;;;;7397372;19;20027;-84
2022/08/09 04:51:10;;;;;;;23.13;13.23;;;14.10;99.90;;;;;;7395913;19;20527;-83
2022/08/09 04:53:38;;;;;;;24.00;10.93;;;14.10;99.90;;;;;;7397155;19;20018;-82
2022/08/09 04:56:05;;;;;;;24.92;12.85;;;14.10;99.90;;;;;;7394777;19;20014;-84
2022/08/09 04:58:31;;;;;;;23.33;12.50;;;14.20;99.90;;;;;;7397199;19;20014;-84
2022/08/09 05:00:58;;;;;;;26.73;13.60;;;14.20;99.90;;;;;;7396723;19;20010;-83
2022/08/09 05:03:24;;;;;;;22.65;13.15;;;14.30;99.90;;;;;;7396767;19;20011;-84
2022/08/09 05:05:50;;;;;;;23.92;12.00;;;14.30;99.90;;;;;;7396607;19;20332;-83
2022/08/09 05:08:16;;;;;;;21.40;10.48;;;14.30;99.90;;;;;;7394219;19;20513;-84
2022/08/09 05:10:43;;;;;;;26.20;12.93;;;14.30;99.90;;;;;;7396692;19;20018;-83
2022/08/09 05:13:09;;;;;;;23.65;13.60;;;14.40;99.90;;;;;;7396892;19;20070;-84
2022/08/09 05:15:35;;;;;;;19.08;11.55;;;14.40;99.90;;;;;;7395272;19;20110;-84
2022/08/09 05:18:00;;;;;;;20.30;13.02;;;14.50;99.90;;;;;;7394753;19;20487;-84
2022/08/09 05:20:26;;;;;;;22.58;11.90;;;14.50;99.90;;;;;;7395966;19;20018;-84
2022/08/09 05:22:52;;;;;;;19.13;12.30;;;14.60;99.90;;;;;;7396370;19;20025;-84
2022/08/09 05:25:19;;;;;;;16.73;9.77;;;14.70;99.90;;;;;;7394142;19;20077;-84
2022/08/09 05:27:46;;;;;;;17.48;11.88;;;14.70;99.90;;;;;;7395830;19;20379;-84
2022/08/09 05:30:12;;;;;;;18.35;11.10;;;14.80;99.90;;;;;;7397379;19;20014;-84
2022/08/09 05:32:38;;;;;;;20.20;11.88;;;14.90;99.90;;;;;;7393122;19;20082;-84
2022/08/09 05:35:04;;;;;;;17.38;10.98;;;14.90;99.90;;;;;;7394837;19;20014;-83
2022/08/09 05:37:30;;;;;;;17.85;11.05;;;15.00;99.90;;;;;;7395365;19;20496;-84
2022/08/09 05:39:57;;;;;;;16.70;13.00;;;15.10;99.90;;;;;;7395852;19;20006;-84
2022/08/09 05:42:23;;;;;;;20.58;12.13;;;15.10;99.90;;;;;;7395663;19;20018;-84
2022/08/09 05:44:53;;;;;;;15.15;9.52;;;15.10;99.90;;;;;;7395457;19;20010;-84
2022/08/09 05:47:21;;;;;;;16.95;12.20;;;15.20;99.90;;;;;;7394018;19;20014;-84
2022/08/09 05:49:47;;;;;;;14.70;10.63;;;15.20;99.90;;;;;;7395303;19;20015;-84
2022/08/09 05:52:13;;;;;;;17.73;12.32;;;15.30;99.90;;;;;;7393482;19;20014;-84
2022/08/09 05:54:40;;;;;;;15.07;11.00;;;15.40;99.90;;;;;;7394693;19;20011;-84
2022/08/09 05:57:05;;;;;;;16.63;11.38;;;15.80;99.90;;;;;;7395062;19;20010;-84
2022/08/09 05:59:31;;;;;;;15.32;11.05;;;16.10;99.90;;;;;;7393348;19;20025;-84
2022/08/09 06:01:57;;;;;;;13.30;10.77;;;16.00;99.90;;;;;;7394809;19;20019;-84
2022/08/09 06:04:23;;;;;;;14.57;8.68;;;16.00;99.90;;;;;;7394461;19;20022;-84
2022/08/09 06:06:49;;;;;;;13.73;8.30;;;16.00;99.90;;;;;;7394643;19;20019;-85
2022/08/09 06:09:21;;;;;;;14.77;9.90;;;15.90;99.90;;;;;;7394621;19;20018;-84
2022/08/09 06:11:47;;;;;;;19.73;10.75;;;16.00;99.90;;;;;;7394348;19;20010;-84
2022/08/09 06:14:13;;;;;;;14.27;9.75;;;16.00;99.90;;;;;;7394178;19;20013;-84
2022/08/09 06:16:39;;;;;;;14.25;10.43;;;16.10;99.90;;;;;;7393043;19;20414;-84
2022/08/09 06:19:05;;;;;;;12.98;9.88;;;16.20;99.90;;;;;;7392323;19;20476;-84
2022/08/09 06:21:31;;;;;;;16.15;9.88;;;16.30;99.90;;;;;;7393068;19;20018;-84
2022/08/09 06:23:57;;;;;;;11.35;8.27;;;16.40;99.90;;;;;;7394695;19;20378;-84
2022/08/09 06:26:23;;;;;;;11.63;8.85;;;16.50;99.90;;;;;;7394360;19;20104;-84
2022/08/09 06:28:51;;;;;;;12.65;8.32;;;16.60;99.90;;;;;;7395832;19;20007;-83
2022/08/09 06:31:16;;;;;;;11.23;9.25;;;16.60;99.90;;;;;;7407076;19;20341;-84
2022/08/09 06:33:43;;;;;;;12.55;8.45;;;16.70;99.90;;;;;;7391749;19;20017;-84
2022/08/09 06:36:09;;;;;;;8.35;6.22;;;17.10;99.90;;;;;;7392303;19;20014;-84
2022/08/09 06:38:35;;;;;;;10.50;6.80;;;17.60;99.90;;;;;;7394433;19;20014;-84
2022/08/09 06:41:01;;;;;;;9.25;6.15;;;17.60;99.90;;;;;;7393640;19;20014;-84
2022/08/09 06:43:27;;;;;;;9.90;6.90;;;17.40;99.90;;;;;;7393646;19;20484;-84
2022/08/09 06:45:53;;;;;;;6.00;4.40;;;17.40;99.90;;;;;;7389828;19;20038;-84
2022/08/09 06:48:19;;;;;;;8.20;4.25;;;17.40;99.90;;;;;;7392550;19;20015;-85
2022/08/09 06:50:45;;;;;;;5.45;3.22;;;17.30;99.90;;;;;;7393301;19;20090;-84
2022/08/09 06:53:12;;;;;;;6.47;3.95;;;17.30;99.90;;;;;;7393286;19;20010;-84
2022/08/09 06:55:38;;;;;;;5.15;3.30;;;17.50;99.90;;;;;;7391712;19;20031;-84
2022/08/09 06:58:05;;;;;;;5.38;2.92;;;17.60;99.90;;;;;;7392992;19;20018;-84
2022/08/09 07:00:35;;;;;;;5.38;2.85;;;17.70;99.90;;;;;;7391104;19;20011;-84
2022/08/09 07:03:01;;;;;;;4.05;2.75;;;18.40;99.90;;;;;;7393744;19;20041;-85
2022/08/09 07:05:27;;;;;;;3.85;1.90;;;19.30;99.90;;;;;;7393937;19;20018;-85
2022/08/09 07:07:54;;;;;;;3.08;1.60;;;19.90;99.90;;;;;;7391685;19;20014;-84
2022/08/09 07:10:21;;;;;;;1.83;1.65;;;20.50;99.90;;;;;;7391505;19;20044;-84
2022/08/09 07:12:48;;;;;;;4.95;1.67;;;21.30;99.90;;;;;;7392797;19;20037;-84
2022/08/09 07:15:14;;;;;;;5.55;1.58;;;21.50;99.90;;;;;;7391872;19;20078;-84
2022/08/09 07:17:39;;;;;;;2.28;1.52;;;21.80;99.90;;;;;;7392875;19;20085;-85
2022/08/09 07:20:06;;;;;;;3.88;1.90;;;21.60;99.90;;;;;;7392399;19;20017;-85
2022/08/09 07:22:32;;;;;;;3.72;1.60;;;21.70;99.90;;;;;;7391017;19;20073;-85
2022/08/09 07:24:57;;;;;;;2.88;1.90;;;22.30;99.90;;;;;;7392077;19;20027;-84
2022/08/09 07:27:24;;;;;;;3.15;1.63;;;23.20;99.90;;;;;;7390701;19;20006;-86
2022/08/09 07:29:50;;;;;;;2.92;1.50;;;23.40;99.90;;;;;;7393341;19;20014;-85
2022/08/09 07:32:16;;;;;;;1.40;1.30;;;23.90;99.90;;;;;;7392241;19;20031;-85
2022/08/09 07:34:42;;;;;;;1.65;1.52;;;24.40;99.90;;;;;;7388551;19;20021;-86
2022/08/09 07:37:07;;;;;;;3.33;1.73;;;25.00;99.90;;;;;;7392242;19;20062;-86
2022/08/09 07:39:33;;;;;;;2.55;1.30;;;26.10;99.90;;;;;;7390880;19;20011;-84
2022/08/09 07:41:59;;;;;;;2.05;1.30;;;26.60;99.90;;;;;;7390707;19;20023;-85
2022/08/09 07:44:25;;;;;;;1.25;1.08;;;26.70;99.90;;;;;;7392209;19;20017;-84
2022/08/09 07:46:51;;;;;;;2.58;1.20;;;26.90;99.90;;;;;;7391864;19;20562;-86
2022/08/09 07:49:17;;;;;;;2.47;1.50;;;26.70;99.90;;;;;;7392053;19;20068;-85
2022/08/09 07:51:42;;;;;;;1.65;1.17;;;26.40;99.90;;;;;;7390570;19;20018;-85
2022/08/09 07:54:08;;;;;;;2.88;1.27;;;26.60;99.90;;;;;;7392168;19;20034;-87
2022/08/09 07:56:36;;;;;;;1.25;0.90;;;26.20;99.90;;;;;;7393847;19;20010;-86
2022/08/09 07:59:02;;;;;;;1.85;1.10;;;26.40;99.90;;;;;;7398486;19;20458;-86
2022/08/09 08:01:28;;;;;;;1.13;1.02;;;26.50;99.90;;;;;;7398987;19;20011;-86
2022/08/09 08:03:55;;;;;;;1.65;1.10;;;26.80;99.90;;;;;;7398626;19;20453;-87
2022/08/09 08:06:21;;;;;;;2.25;1.00;;;26.50;99.90;;;;;;7398274;19;20022;-86
2022/08/09 08:08:48;;;;;;;1.35;1.10;;;26.10;99.90;;;;;;7398718;19;20361;-84
2022/08/09 08:11:15;;;;;;;1.45;0.90;;;25.60;99.90;;;;;;7398702;19;20503;-84
2022/08/09 08:13:42;;;;;;;1.77;1.10;;;25.70;99.90;;;;;;7398285;19;20014;-85
2022/08/09 08:16:08;;;;;;;1.27;0.90;;;26.40;99.90;;;;;;7395389;19;20077;-85
2022/08/09 08:18:34;;;;;;;1.33;0.98;;;25.60;99.90;;;;;;7398563;19;20007;-85
2022/08/09 08:21:00;;;;;;;2.35;1.10;;;25.40;99.90;;;;;;7397531;19;20011;-84
2022/08/09 08:23:26;;;;;;;2.40;1.10;;;25.90;99.90;;;;;;7398001;19;20013;-85
2022/08/09 08:25:52;;;;;;;0.80;0.80;;;26.30;99.90;;;;;;7402934;19;20003;-85
2022/08/09 08:28:20;;;;;;;1.35;1.10;;;25.20;99.90;;;;;;7412679;19;20007;-83
2022/08/09 08:30:46;;;;;;;3.72;1.40;;;24.80;99.90;;;;;;7401607;19;20007;-83
2022/08/09 08:33:14;;;;;;;1.75;1.10;;;24.10;99.90;;;;;;7397459;19;20014;-84
2022/08/09 08:35:40;;;;;;;2.35;1.20;;;23.70;99.90;;;;;;7396184;19;20010;-84
2022/08/09 08:38:05;;;;;;;2.33;1.42;;;23.50;99.90;;;;;;7396106;19;20018;-83
2022/08/09 08:40:32;;;;;;;1.00;1.00;;;22.40;99.90;;;;;;7397652;19;20493;-85
2022/08/09 08:42:59;;;;;;;1.50;1.15;;;21.30;99.90;;;;;;7397576;19;20015;-84
2022/08/09 08:45:31;;;;;;;2.03;1.20;;;20.90;99.90;;;;;;7397505;19;20026;-85
2022/08/09 08:47:58;;;;;;;3.38;1.30;;;20.40;99.90;;;;;;7397607;19;20007;-83
2022/08/09 08:50:24;;;;;;;2.47;1.42;;;20.30;99.90;;;;;;7397011;19;20033;-83
2022/08/09 08:52:51;;;;;;;2.95;1.35;;;20.50;99.90;;;;;;7395466;19;20011;-83
2022/08/09 08:55:17;;;;;;;3.10;1.15;;;20.60;99.90;;;;;;7395775;19;20011;-84
2022/08/09 08:57:45;;;;;;;1.92;1.27;;;20.80;99.90;;;;;;7397122;19;20015;-83
2022/08/09 09:00:11;;;;;;;1.55;1.30;;;20.90;99.90;;;;;;7397212;19;20011;-83
2022/08/09 09:02:38;;;;;;;1.65;1.10;;;20.70;99.90;;;;;;7397415;19;20018;-85
2022/08/09 09:05:04;;;;;;;1.55;1.30;;;20.30;99.90;;;;;;7397252;19;20430;-85
2022/08/09 09:07:32;;;;;;;1.90;1.02;;;20.50;99.90;;;;;;7394577;19;20341;-86
2022/08/09 09:10:02;;;;;;;1.70;1.02;;;20.80;99.90;;;;;;7396042;19;20011;-83
2022/08/09 09:12:30;;;;;;;1.90;0.90;;;20.80;99.90;;;;;;7397008;19;20019;-84
2022/08/09 09:15:00;;;;;;;1.25;0.85;;;21.10;99.90;;;;;;7395970;19;20018;-86
2022/08/09 09:17:25;;;;;;;2.05;1.08;;;21.10;99.90;;;;;;7396690;19;20490;-85
2022/08/09 09:19:52;;;;;;;1.48;1.13;;;20.80;99.90;;;;;;7396519;19;20015;-85
2022/08/09 09:22:20;;;;;;;1.48;0.90;;;20.90;99.90;;;;;;7394880;19;20476;-85
2022/08/09 09:24:54;;;;;;;1.40;0.98;;;20.80;99.90;;;;;;7394721;19;20011;-85
2022/08/09 09:27:25;;;;;;;1.85;0.90;;;20.90;99.90;;;;;;7396587;19;20011;-85
2022/08/09 09:29:52;;;;;;;1.52;0.90;;;21.10;99.90;;;;;;7396322;19;20013;-84
2022/08/09 09:32:20;;;;;;;2.55;0.88;;;21.10;99.90;;;;;;7395541;19;20018;-84
2022/08/09 09:35:08;;;;;;;1.92;0.85;;;21.20;99.90;;;;;;7394176;19;20479;-85
2022/08/09 09:37:35;;;;;;;1.38;0.90;;;21.10;99.90;;;;;;7396134;19;20479;-84
2022/08/09 09:40:00;;;;;;;1.40;0.95;;;21.00;99.90;;;;;;7395951;19;20023;-84
2022/08/09 09:42:31;;;;;;;1.70;0.80;;;21.20;99.90;;;;;;7395853;19;20010;-86
2022/08/09 09:45:06;;;;;;;1.08;0.80;;;21.20;99.90;;;;;;7395605;19;20018;-85
2022/08/09 09:47:32;;;;;;;2.92;1.00;;;21.30;99.90;;;;;;7393694;19;20356;-85
2022/08/09 09:49:58;;;;;;;0.82;0.80;;;21.50;99.90;;;;;;7395670;19;20028;-85
2022/08/09 09:52:27;;;;;;;0.98;0.80;;;21.60;99.90;;;;;;7395250;19;20015;-84
2022/08/09 09:55:08;;;;;;;1.25;0.80;;;21.60;99.90;;;;;;7394686;19;20384;-84
2022/08/09 09:57:34;;;;;;;1.13;0.70;;;21.50;99.90;;;;;;7395718;19;20015;-86
2022/08/09 10:00:02;;;;;;;1.30;0.40;;;21.60;99.90;;;;;;7394849;19;20368;-84
2022/08/09 10:02:28;;;;;;;1.13;0.73;;;21.80;99.90;;;;;;7393733;19;20038;-86
2022/08/09 10:05:04;;;;;;;1.63;0.75;;;22.00;99.90;;;;;;7393806;19;20007;-84
2022/08/09 10:07:30;;;;;;;0.90;0.68;;;22.20;99.90;;;;;;7394101;19;20019;-85
2022/08/09 10:09:57;;;;;;;1.10;0.95;;;22.40;99.90;;;;;;7394555;19;20122;-85
2022/08/09 10:12:29;;;;;;;1.38;0.88;;;22.50;99.90;;;;;;7394275;19;20019;-84
2022/08/09 10:15:11;;;;;;;3.95;0.90;;;22.30;99.90;;;;;;7394142;19;20015;-84
2022/08/09 10:17:39;;;;;;;1.10;0.80;;;22.30;99.90;;;;;;7395890;19;20018;-84
2022/08/09 10:20:18;;;;;;;1.33;1.20;;;22.10;99.90;;;;;;7401683;19;20006;-86
2022/08/09 10:22:45;;;;;;;1.52;0.70;;;22.20;99.90;;;;;;7402795;19;20007;-85
2022/08/09 10:25:12;;;;;;;1.63;0.70;;;22.30;99.90;;;;;;7394065;19;20015;-86
2022/08/09 10:27:38;;;;;;;1.27;0.90;;;22.10;99.90;;;;;;7394456;19;20010;-86
2022/08/09 10:30:08;;;;;;;1.10;1.00;;;22.30;99.90;;;;;;7392907;19;20046;-87
2022/08/09 10:32:34;;;;;;;0.88;0.88;;;22.60;99.90;;;;;;7393944;19;20014;-86
2022/08/09 10:35:00;;;;;;;1.48;0.85;;;22.90;99.90;;;;;;7391854;19;20038;-84
2022/08/09 10:37:27;;;;;;;0.80;0.68;;;22.90;99.90;;;;;;7392038;19;20070;-84
2022/08/09 10:39:53;;;;;;;0.75;0.50;;;22.60;99.90;;;;;;7394030;19;20014;-87
2022/08/09 10:42:20;;;;;;;1.73;0.65;;;22.70;99.90;;;;;;7393738;19;20021;-84
2022/08/09 10:44:56;;;;;;;0.93;0.60;;;22.80;99.90;;;;;;7393796;19;20038;-86
2022/08/09 10:47:56;;;;;;;1.15;0.60;;;22.80;99.90;;;;;;7393694;19;20010;-85
2022/08/09 10:53:58;;;;;;;1.67;0.50;;;23.00;99.90;;;;;;7393251;19;20399;-85
2022/08/09 10:56:28;;;;;;;0.63;0.63;;;22.80;99.90;;;;;;7390784;19;20015;-85
2022/08/09 10:58:57;;;;;;;1.17;0.70;;;22.70;99.90;;;;;;7393108;19;20010;-86
2022/08/09 11:01:32;;;;;;;1.38;0.60;;;22.80;99.90;;;;;;7392967;19;20015;-85
2022/08/09 11:04:19;;;;;;;1.08;0.50;;;23.10;99.90;;;;;;7393374;19;20053;-85
2022/08/09 11:06:48;;;;;;;0.63;0.57;;;23.20;99.90;;;;;;7393042;19;20100;-85
2022/08/09 11:09:38;;;;;;;1.25;0.70;;;23.40;99.90;;;;;;7393065;19;20019;-84
2022/08/09 11:12:09;;;;;;;0.80;0.60;;;23.40;99.90;;;;;;7392602;19;20337;-87
2022/08/09 11:14:56;;;;;;;1.38;0.80;;;23.60;99.90;;;;;;7392557;19;20506;-84
2022/08/09 11:17:41;;;;;;;1.27;0.70;;;23.40;99.90;;;;;;7391501;19;20019;-86
2022/08/09 11:20:11;;;;;;;2.25;0.47;;;23.50;99.90;;;;;;7392356;19;20376;-85
2022/08/09 11:22:43;;;;;;;0.73;0.60;;;23.60;99.90;;;;;;7390925;19;20434;-84
2022/08/09 11:25:21;;;;;;;0.70;0.70;;;23.60;99.90;;;;;;7391996;19;20028;-85
2022/08/09 11:27:52;;;;;;;1.20;0.70;;;23.70;99.90;;;;;;7392342;19;20018;-85
2022/08/09 11:30:21;;;;;;;3.17;0.63;;;23.50;99.90;;;;;;7395331;19;20006;-85
2022/08/09 11:32:51;;;;;;;1.05;0.80;;;23.30;99.90;;;;;;7397838;19;20010;-83
2022/08/09 11:35:24;;;;;;;0.70;0.70;;;23.30;99.90;;;;;;7398555;19;20360;-86
2022/08/09 11:37:51;;;;;;;1.48;0.90;;;23.40;99.90;;;;;;7400107;19;20018;-85
2022/08/09 11:40:23;;;;;;;0.95;0.80;;;23.20;99.90;;;;;;7399494;19;20017;-85
2022/08/09 11:42:52;;;;;;;0.63;0.60;;;23.30;99.90;;;;;;7399611;19;20487;-85
2022/08/09 11:45:29;;;;;;;2.70;0.70;;;23.40;99.90;;;;;;7399719;19;20009;-85
2022/08/09 11:47:57;;;;;;;2.28;0.85;;;23.30;99.90;;;;;;7399745;19;20014;-85
2022/08/09 11:50:24;;;;;;;0.82;0.47;;;23.50;99.90;;;;;;7399193;19;20494;-85
2022/08/09 11:53:03;;;;;;;0.55;0.55;;;23.30;99.90;;;;;;7397611;19;20013;-86
2022/08/09 11:55:32;;;;;;;0.60;0.60;;;23.50;99.90;;;;;;7397167;19;20007;-83
2022/08/09 11:58:04;;;;;;;0.70;0.50;;;23.60;99.90;;;;;;7399147;19;20017;-84
2022/08/09 12:00:32;;;;;;;0.82;0.60;;;23.60;99.90;;;;;;7399737;19;20035;-85
2022/08/09 12:03:00;;;;;;;0.77;0.63;;;23.70;99.90;;;;;;7399140;19;20010;-84
2022/08/09 12:05:31;;;;;;;1.60;0.60;;;23.90;99.90;;;;;;7397197;19;20011;-85
2022/08/09 12:07:58;;;;;;;2.13;0.68;;;24.10;99.90;;;;;;7397193;19;20475;-84
2022/08/09 12:10:24;;;;;;;2.55;0.65;;;24.10;99.90;;;;;;7400299;19;20011;-86
2022/08/09 12:12:51;;;;;;;1.33;0.50;;;24.10;99.90;;;;;;7403630;19;20018;-83
2022/08/09 12:15:23;;;;;;;1.17;0.50;;;24.10;99.90;;;;;;7402062;19;20362;-85
2022/08/09 12:17:50;;;;;;;1.23;0.60;;;23.90;99.90;;;;;;7399471;19;20463;-85
2022/08/09 12:20:24;;;;;;;1.58;0.50;;;24.00;99.90;;;;;;7398926;19;20018;-86
2022/08/09 12:22:56;;;;;;;2.20;0.50;;;24.00;99.90;;;;;;7396640;19;20482;-87
2022/08/09 12:25:24;;;;;;;3.05;0.68;;;23.90;99.90;;;;;;7397770;19;20482;-86
2022/08/09 12:28:08;;;;;;;2.00;0.50;;;23.90;99.90;;;;;;7398532;19;20365;-86
2022/08/09 12:30:34;;;;;;;0.95;0.50;;;23.90;99.90;;;;;;7402059;19;20105;-85
2022/08/09 12:33:01;;;;;;;1.63;0.55;;;24.00;99.90;;;;;;7396330;19;20022;-85
2022/08/09 12:35:27;;;;;;;1.65;0.68;;;24.00;99.90;;;;;;7396439;19;20015;-85
2022/08/09 12:37:53;;;;;;;0.80;0.60;;;24.10;99.90;;;;;;7397764;19;20367;-86
2022/08/09 12:40:21;;;;;;;1.15;0.85;;;24.20;99.90;;;;;;7397410;19;20422;-85
2022/08/09 12:42:47;;;;;;;2.13;0.60;;;24.10;99.90;;;;;;7395296;19;20015;-85
2022/08/09 12:45:13;;;;;;;2.35;0.60;;;24.30;99.90;;;;;;7397297;19;20038;-86
2022/08/09 12:47:39;;;;;;;1.27;0.52;;;24.40;99.90;;;;;;7395990;19;20506;-85
2022/08/09 12:50:18;;;;;;;2.25;0.60;;;24.20;99.80;;;;;;7395853;19;20015;-86